Time;durP1;ratioP1;P1;durP2;ratioP2;P2;SDS_P1;SDS_P2;PMS_P1;PMS_P2;Temp;Humidity;BMP_temperature;BMP_pressure;BME280_temperature;BME280_humidity;BME280_pressure;Samples;Min_cycle;Max_cycle;Signal;HPM_P1;HPM_P2
2022/03/21 00:01:20;;;;;;;62.72;37.28;;;;;;;;;;4999435;28;93882;-73
2022/03/21 00:03:47;;;;;;;57.42;37.13;;;;;;;;;;4998766;28;92601;-74
2022/03/21 00:06:13;;;;;;;58.75;37.05;;;;;;;;;;5002551;28;91903;-73
2022/03/21 00:08:40;;;;;;;63.22;38.38;;;;;;;;;;4999502;28;93000;-74
2022/03/21 00:11:07;;;;;;;59.95;36.78;;;;;;;;;;4997136;28;92345;-73
2022/03/21 00:13:35;;;;;;;59.83;37.28;;;;;;;;;;4997488;28;94740;-75
2022/03/21 00:16:03;;;;;;;55.38;36.53;;;;;;;;;;4998856;28;93455;-74
2022/03/21 00:18:30;;;;;;;59.13;37.38;;;;;;;;;;4999530;28;92146;-73
2022/03/21 00:20:56;;;;;;;62.47;38.00;;;;;;;;;;4999303;28;93449;-75
2022/03/21 00:23:24;;;;;;;58.63;37.75;;;;;;;;;;5002215;28;93595;-74
2022/03/21 00:25:51;;;;;;;60.80;38.75;;;;;;;;;;5001986;28;92217;-73
2022/03/21 00:28:17;;;;;;;62.40;38.28;;;;;;;;;;5002334;28;94034;-74
2022/03/21 00:30:44;;;;;;;60.47;39.25;;;;;;;;;;4997853;28;91781;-75
2022/03/21 00:33:11;;;;;;;65.47;39.35;;;;;;;;;;4998968;28;92361;-74
2022/03/21 00:35:37;;;;;;;60.08;38.97;;;;;;;;;;4997498;28;95886;-75
2022/03/21 00:38:05;;;;;;;58.67;37.25;;;;;;;;;;4997256;28;94722;-75
2022/03/21 00:40:31;;;;;;;63.65;39.88;;;;;;;;;;4998760;28;95353;-74
2022/03/21 00:42:58;;;;;;;63.53;37.95;;;;;;;;;;4998567;28;93850;-75
2022/03/21 00:45:25;;;;;;;63.70;39.45;;;;;;;;;;4998207;28;92321;-75
2022/03/21 00:47:52;;;;;;;64.13;39.42;;;;;;;;;;5001921;28;93141;-73
2022/03/21 00:50:20;;;;;;;62.10;38.35;;;;;;;;;;4999371;28;92176;-74
2022/03/21 00:52:49;;;;;;;58.90;37.85;;;;;;;;;;5002129;28;92472;-74
2022/03/21 00:55:16;;;;;;;59.35;38.10;;;;;;;;;;4998890;28;92821;-73
2022/03/21 00:57:43;;;;;;;61.90;37.65;;;;;;;;;;4998471;28;92412;-75
2022/03/21 01:00:12;;;;;;;59.88;37.53;;;;;;;;;;4998109;28;93486;-75
2022/03/21 01:02:39;;;;;;;58.30;36.72;;;;;;;;;;4995472;28;97373;-75
2022/03/21 01:05:07;;;;;;;59.70;36.80;;;;;;;;;;4998541;28;92794;-75
2022/03/21 01:07:33;;;;;;;61.53;38.10;;;;;;;;;;4998260;28;93858;-74
2022/03/21 01:10:00;;;;;;;65.13;37.63;;;;;;;;;;5001646;28;93703;-74
2022/03/21 01:12:27;;;;;;;64.85;37.83;;;;;;;;;;4998072;28;93155;-76
2022/03/21 01:14:53;;;;;;;60.90;38.03;;;;;;;;;;4998337;28;93325;-74
2022/03/21 01:17:20;;;;;;;61.70;37.83;;;;;;;;;;4998319;28;92408;-74
2022/03/21 01:19:46;;;;;;;63.65;40.05;;;;;;;;;;4998577;28;93457;-73
2022/03/21 01:22:13;;;;;;;63.42;38.17;;;;;;;;;;4998023;28;93927;-74
2022/03/21 01:24:39;;;;;;;63.38;38.60;;;;;;;;;;4998255;28;92335;-74
2022/03/21 01:27:06;;;;;;;64.47;37.58;;;;;;;;;;4996064;28;94552;-74
2022/03/21 01:29:33;;;;;;;66.38;38.38;;;;;;;;;;4997846;28;93550;-74
2022/03/21 01:32:00;;;;;;;69.72;41.35;;;;;;;;;;4999761;28;92344;-74
2022/03/21 01:34:27;;;;;;;67.15;39.35;;;;;;;;;;4997882;28;93403;-76
2022/03/21 01:36:53;;;;;;;66.63;40.10;;;;;;;;;;4997949;28;92252;-75
2022/03/21 01:39:20;;;;;;;68.63;38.40;;;;;;;;;;4997936;28;92959;-75
2022/03/21 01:41:46;;;;;;;64.03;39.83;;;;;;;;;;4997255;28;92758;-74
2022/03/21 01:44:13;;;;;;;61.42;39.63;;;;;;;;;;4997283;28;92027;-74
2022/03/21 01:46:41;;;;;;;63.70;39.35;;;;;;;;;;4997716;28;92726;-74
2022/03/21 01:49:08;;;;;;;63.42;39.00;;;;;;;;;;4997752;28;93946;-75
2022/03/21 01:51:38;;;;;;;66.00;39.60;;;;;;;;;;4996002;28;94717;-73
2022/03/21 01:56:51;;;;;;;67.32;38.80;;;;;;;;;;4997605;28;92235;-73
2022/03/21 01:59:19;;;;;;;67.60;39.33;;;;;;;;;;4997262;28;93002;-74
2022/03/21 02:01:45;;;;;;;64.80;39.05;;;;;;;;;;4996346;28;94880;-75
2022/03/21 02:04:12;;;;;;;65.38;38.30;;;;;;;;;;5002422;28;92250;-75
2022/03/21 02:06:39;;;;;;;64.13;39.17;;;;;;;;;;5004781;28;93883;-74
2022/03/21 02:09:09;;;;;;;70.28;39.28;;;;;;;;;;4997670;28;92103;-74
2022/03/21 02:11:35;;;;;;;61.72;39.65;;;;;;;;;;4996016;28;92365;-74
2022/03/21 02:14:03;;;;;;;64.95;39.28;;;;;;;;;;4997271;28;92847;-74
2022/03/21 02:16:31;;;;;;;66.43;40.20;;;;;;;;;;4997383;28;97495;-74
2022/03/21 02:19:04;;;;;;;70.45;40.28;;;;;;;;;;4997123;28;96037;-74
2022/03/21 02:21:42;;;;;;;62.60;38.65;;;;;;;;;;4996957;28;92787;-75
2022/03/21 02:24:10;;;;;;;65.07;40.25;;;;;;;;;;4997306;28;92341;-74
2022/03/21 02:26:37;;;;;;;73.32;41.33;;;;;;;;;;4997208;28;93229;-74
2022/03/21 02:29:04;;;;;;;68.00;40.17;;;;;;;;;;4979437;28;94373;-74
2022/03/21 02:31:34;;;;;;;66.22;41.03;;;;;;;;;;5006701;28;92169;-73
2022/03/21 02:34:00;;;;;;;69.20;41.67;;;;;;;;;;5002652;28;92530;-73
2022/03/21 02:36:27;;;;;;;69.15;40.75;;;;;;;;;;4997079;28;92656;-74
2022/03/21 02:38:56;;;;;;;64.15;39.13;;;;;;;;;;4999996;28;92138;-74
2022/03/21 02:41:23;;;;;;;69.60;41.80;;;;;;;;;;4994778;28;95065;-74
2022/03/21 02:43:52;;;;;;;69.80;40.58;;;;;;;;;;4996727;28;92373;-75
2022/03/21 02:46:19;;;;;;;74.35;41.38;;;;;;;;;;4996630;28;92985;-74
2022/03/21 02:48:46;;;;;;;71.88;40.88;;;;;;;;;;4996926;28;93608;-74
2022/03/21 02:51:13;;;;;;;70.05;41.05;;;;;;;;;;4996899;28;92367;-74
2022/03/21 02:53:40;;;;;;;70.28;40.85;;;;;;;;;;4996689;28;93377;-74
2022/03/21 02:56:06;;;;;;;67.50;41.55;;;;;;;;;;4996597;28;93585;-74
2022/03/21 02:58:33;;;;;;;69.90;41.13;;;;;;;;;;5000403;28;91397;-73
2022/03/21 03:01:09;;;;;;;72.50;43.17;;;;;;;;;;4996272;28;92838;-74
2022/03/21 03:03:36;;;;;;;70.82;42.10;;;;;;;;;;4996595;28;92314;-73
2022/03/21 03:06:03;;;;;;;67.03;41.92;;;;;;;;;;4995043;28;94756;-73
2022/03/21 03:08:30;;;;;;;69.82;40.92;;;;;;;;;;4996506;28;93640;-74
2022/03/21 03:10:57;;;;;;;77.63;42.55;;;;;;;;;;4996513;28;92722;-72
2022/03/21 03:13:23;;;;;;;69.90;42.88;;;;;;;;;;4996663;28;92738;-73
2022/03/21 03:15:50;;;;;;;73.85;42.53;;;;;;;;;;4995312;28;94374;-74
2022/03/21 03:18:17;;;;;;;70.30;41.58;;;;;;;;;;5009970;28;92315;-75
2022/03/21 03:20:47;;;;;;;70.35;42.65;;;;;;;;;;5002498;28;93498;-75
2022/03/21 03:23:13;;;;;;;74.07;42.65;;;;;;;;;;4996824;28;91564;-74
2022/03/21 03:25:40;;;;;;;73.50;41.03;;;;;;;;;;4996401;28;92370;-74
2022/03/21 03:28:06;;;;;;;77.05;42.05;;;;;;;;;;4995611;28;92327;-75
2022/03/21 03:30:33;;;;;;;71.35;42.45;;;;;;;;;;4994716;28;94657;-75
2022/03/21 03:32:59;;;;;;;70.22;42.88;;;;;;;;;;4995804;28;97079;-75
2022/03/21 03:35:26;;;;;;;79.13;44.10;;;;;;;;;;4996103;28;93914;-74
2022/03/21 03:37:53;;;;;;;69.18;41.83;;;;;;;;;;4996068;28;92511;-74
2022/03/21 03:40:19;;;;;;;70.70;42.42;;;;;;;;;;4995150;28;93461;-74
2022/03/21 03:42:46;;;;;;;71.90;42.30;;;;;;;;;;4998603;28;92699;-74
2022/03/21 03:45:13;;;;;;;75.80;42.13;;;;;;;;;;4995668;28;93319;-75
2022/03/21 03:47:40;;;;;;;75.13;43.10;;;;;;;;;;4994536;28;93035;-74
2022/03/21 03:50:07;;;;;;;70.43;42.38;;;;;;;;;;4996075;28;92310;-75
2022/03/21 03:52:33;;;;;;;73.72;42.03;;;;;;;;;;4993804;28;93398;-74
2022/03/21 03:55:00;;;;;;;72.22;41.33;;;;;;;;;;4994018;28;95900;-75
2022/03/21 03:57:26;;;;;;;69.72;39.58;;;;;;;;;;4995816;28;92448;-74
2022/03/21 03:59:53;;;;;;;70.13;41.95;;;;;;;;;;4996163;28;93364;-74
2022/03/21 04:02:19;;;;;;;67.97;40.97;;;;;;;;;;4995831;28;93994;-74
2022/03/21 04:04:46;;;;;;;77.97;42.03;;;;;;;;;;4997873;28;93095;-74
2022/03/21 04:07:12;;;;;;;71.78;40.60;;;;;;;;;;4993123;28;92943;-75
2022/03/21 04:09:38;;;;;;;68.70;40.13;;;;;;;;;;4995379;28;92308;-74
2022/03/21 04:12:05;;;;;;;71.75;40.10;;;;;;;;;;4996235;28;93337;-73
2022/03/21 04:14:31;;;;;;;71.55;41.67;;;;;;;;;;4994205;28;95567;-74
2022/03/21 04:16:57;;;;;;;68.97;40.53;;;;;;;;;;4995371;28;92597;-74
2022/03/21 04:19:24;;;;;;;73.30;42.05;;;;;;;;;;4994319;28;94834;-74
2022/03/21 04:21:51;;;;;;;72.78;40.03;;;;;;;;;;4995179;28;93214;-74
2022/03/21 04:24:17;;;;;;;74.03;40.63;;;;;;;;;;4995810;28;92259;-74
2022/03/21 04:26:43;;;;;;;72.47;41.13;;;;;;;;;;4980839;28;93728;-74
2022/03/21 04:29:10;;;;;;;68.47;40.83;;;;;;;;;;4999552;28;94383;-74
2022/03/21 04:31:36;;;;;;;76.85;42.65;;;;;;;;;;5014541;28;92610;-73
2022/03/21 04:34:03;;;;;;;72.85;43.67;;;;;;;;;;4999021;28;93009;-75
2022/03/21 04:36:29;;;;;;;71.63;41.42;;;;;;;;;;4999991;28;91548;-74
2022/03/21 04:38:56;;;;;;;72.03;42.30;;;;;;;;;;4993077;28;92959;-73
2022/03/21 04:41:22;;;;;;;71.35;42.25;;;;;;;;;;4999363;28;93652;-74
2022/03/21 04:43:49;;;;;;;68.35;41.42;;;;;;;;;;4995608;28;95926;-74
2022/03/21 04:46:16;;;;;;;70.93;40.08;;;;;;;;;;5000460;28;97063;-73
2022/03/21 04:48:42;;;;;;;70.03;41.97;;;;;;;;;;4998726;28;92288;-74
2022/03/21 04:51:09;;;;;;;71.60;41.45;;;;;;;;;;4998848;28;93722;-75
2022/03/21 04:53:35;;;;;;;73.85;41.00;;;;;;;;;;4998624;28;93102;-74
2022/03/21 04:56:01;;;;;;;70.15;43.00;;;;;;;;;;4998343;28;92309;-73
2022/03/21 04:58:28;;;;;;;71.15;40.88;;;;;;;;;;4998457;28;93564;-74
2022/03/21 05:00:54;;;;;;;75.45;42.60;;;;;;;;;;4999115;28;93174;-74
2022/03/21 05:03:22;;;;;;;74.72;41.72;;;;;;;;;;4998477;28;92515;-74
2022/03/21 05:05:49;;;;;;;78.38;42.45;;;;;;;;;;4998516;28;93179;-74
2022/03/21 05:08:16;;;;;;;73.57;42.10;;;;;;;;;;4998736;28;97970;-74
2022/03/21 05:10:42;;;;;;;72.43;42.30;;;;;;;;;;4998243;28;95322;-75
2022/03/21 05:13:09;;;;;;;73.88;41.75;;;;;;;;;;4998286;28;94357;-74
2022/03/21 05:15:36;;;;;;;71.93;40.22;;;;;;;;;;4998606;28;92467;-74
2022/03/21 05:18:04;;;;;;;75.75;41.42;;;;;;;;;;4998298;28;92805;-74
2022/03/21 05:20:30;;;;;;;67.80;39.58;;;;;;;;;;4998218;28;92931;-74
2022/03/21 05:31:12;;;;;;;63.80;39.00;;;;;;;;;;5000956;28;92309;-74
2022/03/21 05:36:26;;;;;;;75.60;41.30;;;;;;;;;;4997794;28;92244;-74
2022/03/21 05:38:52;;;;;;;70.03;40.00;;;;;;;;;;4997298;28;93466;-74
2022/03/21 05:41:19;;;;;;;71.65;40.97;;;;;;;;;;4997139;28;94136;-74
2022/03/21 05:43:45;;;;;;;72.70;41.17;;;;;;;;;;5008567;28;92371;-74
2022/03/21 05:46:11;;;;;;;71.43;41.20;;;;;;;;;;4999849;28;93953;-75
2022/03/21 05:51:27;;;;;;;69.03;39.97;;;;;;;;;;4998342;28;91463;-74
2022/03/21 05:53:57;;;;;;;74.18;41.83;;;;;;;;;;4999277;28;93690;-74
2022/03/21 05:56:25;;;;;;;70.63;39.90;;;;;;;;;;4997262;28;92290;-75
2022/03/21 05:58:55;;;;;;;70.40;40.83;;;;;;;;;;4996042;28;94783;-75
2022/03/21 06:01:22;;;;;;;72.10;40.63;;;;;;;;;;4997262;28;93864;-74
2022/03/21 06:03:50;;;;;;;67.50;40.88;;;;;;;;;;4997846;28;92343;-75
2022/03/21 06:06:17;;;;;;;73.53;38.55;;;;;;;;;;4997656;28;93426;-74
2022/03/21 06:08:43;;;;;;;72.78;40.55;;;;;;;;;;4997360;28;94054;-74
2022/03/21 06:11:10;;;;;;;69.70;40.60;;;;;;;;;;4996757;28;92363;-75
2022/03/21 06:13:37;;;;;;;68.22;40.65;;;;;;;;;;4997294;28;93947;-75
2022/03/21 06:16:04;;;;;;;74.60;40.42;;;;;;;;;;5000907;28;92799;-75
2022/03/21 06:18:31;;;;;;;75.63;42.60;;;;;;;;;;4997176;28;92352;-74
2022/03/21 06:20:58;;;;;;;78.00;41.83;;;;;;;;;;4997004;28;94857;-74
2022/03/21 06:23:24;;;;;;;75.88;42.28;;;;;;;;;;4995763;28;94726;-74
2022/03/21 06:25:53;;;;;;;69.50;41.10;;;;;;;;;;4996994;28;96237;-75
2022/03/21 06:28:23;;;;;;;68.45;40.78;;;;;;;;;;4997066;28;93429;-75
2022/03/21 06:30:53;;;;;;;70.38;39.72;;;;;;;;;;4997108;28;92356;-74
2022/03/21 06:33:20;;;;;;;70.75;40.65;;;;;;;;;;4997376;28;93370;-73
2022/03/21 06:35:48;;;;;;;70.43;41.60;;;;;;;;;;4996955;28;93138;-74
2022/03/21 06:38:14;;;;;;;72.28;41.38;;;;;;;;;;5000077;28;92339;-74
2022/03/21 06:40:42;;;;;;;76.47;42.47;;;;;;;;;;4997242;28;94044;-73
2022/03/21 06:43:08;;;;;;;73.45;41.67;;;;;;;;;;4997004;28;92318;-75
2022/03/21 06:45:35;;;;;;;69.82;40.90;;;;;;;;;;4997047;28;93129;-75
2022/03/21 06:48:01;;;;;;;76.05;42.33;;;;;;;;;;5008309;28;95991;-73
2022/03/21 06:50:28;;;;;;;68.32;40.70;;;;;;;;;;4999586;28;92127;-74
2022/03/21 06:52:54;;;;;;;65.88;40.83;;;;;;;;;;4996012;28;92463;-74
2022/03/21 06:55:24;;;;;;;67.57;40.83;;;;;;;;;;5000243;28;93400;-74
2022/03/21 06:57:50;;;;;;;72.55;40.97;;;;;;;;;;5000526;28;92303;-74
2022/03/21 07:00:17;;;;;;;68.75;41.70;;;;;;;;;;4996944;28;93555;-73
2022/03/21 07:02:44;;;;;;;69.00;42.05;;;;;;;;;;4996738;28;92204;-73
2022/03/21 07:05:11;;;;;;;64.20;41.95;;;;;;;;;;4995422;28;94760;-74
2022/03/21 07:07:37;;;;;;;65.43;42.05;;;;;;;;;;4996413;28;93775;-75
2022/03/21 07:10:09;;;;;;;66.80;41.85;;;;;;;;;;4996630;28;92140;-74
2022/03/21 07:12:35;;;;;;;;;;;;;;;;;;4995168;28;94873;-73
2022/03/21 07:15:02;;;;;;;69.97;42.00;;;;;;;;;;4996152;28;122438;-73
2022/03/21 07:17:28;;;;;;;67.15;42.45;;;;;;;;;;4996347;28;92207;-74
2022/03/21 07:19:55;;;;;;;69.90;43.22;;;;;;;;;;4998953;28;93515;-72
2022/03/21 07:22:21;;;;;;;70.90;43.40;;;;;;;;;;4996354;28;92183;-73
2022/03/21 07:24:47;;;;;;;69.47;44.20;;;;;;;;;;4996275;28;93131;-72
2022/03/21 07:27:14;;;;;;;73.13;43.28;;;;;;;;;;4996100;28;93651;-73
2022/03/21 07:29:40;;;;;;;77.32;43.58;;;;;;;;;;4995826;28;91618;-72
2022/03/21 07:32:07;;;;;;;77.53;44.80;;;;;;;;;;4996105;28;92663;-72
2022/03/21 07:34:33;;;;;;;64.30;43.03;;;;;;;;;;4995794;28;93456;-72
2022/03/21 07:37:00;;;;;;;69.00;41.10;;;;;;;;;;4994631;28;94718;-74
2022/03/21 07:39:26;;;;;;;67.68;41.40;;;;;;;;;;4995923;28;95825;-73
2022/03/21 07:41:59;;;;;;;65.20;42.90;;;;;;;;;;5000618;28;92692;-73
2022/03/21 07:47:22;;;;;;;62.05;38.03;;;;;;;;;;4959051;28;93057;-74
2022/03/21 07:49:52;;;;;;;65.15;38.97;;;;;;;;;;4995453;28;92272;-73
2022/03/21 07:52:20;;;;;;;65.68;39.05;;;;;;;;;;4994993;28;93428;-73
2022/03/21 07:54:52;;;;;;;68.05;39.58;;;;;;;;;;4996349;28;92402;-75
2022/03/21 07:57:21;;;;;;;59.53;38.80;;;;;;;;;;4995612;28;93927;-73
2022/03/21 07:59:47;;;;;;;59.13;38.88;;;;;;;;;;4995870;28;93541;-74
2022/03/21 08:02:13;;;;;;;57.47;38.80;;;;;;;;;;4993937;28;95420;-75
2022/03/21 08:04:40;;;;;;;58.40;37.53;;;;;;;;;;5001364;28;92974;-74
2022/03/21 08:07:07;;;;;;;53.72;35.70;;;;;;;;;;4999083;28;93639;-74
2022/03/21 08:09:33;;;;;;;54.88;36.50;;;;;;;;;;4999083;28;92427;-73
2022/03/21 08:12:02;;;;;;;55.58;35.22;;;;;;;;;;4998741;28;93659;-74
2022/03/21 08:14:29;;;;;;;51.33;35.03;;;;;;;;;;4998993;28;93338;-74
2022/03/21 08:16:55;;;;;;;50.30;31.75;;;;;;;;;;4999159;28;92378;-73
2022/03/21 08:19:24;;;;;;;49.53;32.20;;;;;;;;;;4999360;28;93338;-74
2022/03/21 08:21:51;;;;;;;45.70;32.38;;;;;;;;;;4999037;28;92735;-73
2022/03/21 08:24:17;;;;;;;45.80;32.22;;;;;;;;;;4999063;28;92209;-74
2022/03/21 08:26:44;;;;;;;50.63;32.95;;;;;;;;;;5000072;28;94747;-74
2022/03/21 08:29:10;;;;;;;47.67;32.45;;;;;;;;;;4998783;28;92393;-75
2022/03/21 08:31:36;;;;;;;44.58;32.70;;;;;;;;;;4998739;28;92743;-75
2022/03/21 08:34:03;;;;;;;45.63;31.45;;;;;;;;;;4998354;28;93936;-75
2022/03/21 08:36:30;;;;;;;41.78;30.20;;;;;;;;;;4998873;28;92183;-74
2022/03/21 08:38:57;;;;;;;42.78;28.23;;;;;;;;;;4998824;28;92507;-80
2022/03/21 08:41:23;;;;;;;39.25;28.42;;;;;;;;;;4998598;28;93297;-75
2022/03/21 08:43:50;;;;;;;46.92;29.02;;;;;;;;;;4997549;28;91807;-75
2022/03/21 08:46:16;;;;;;;36.75;26.75;;;;;;;;;;4997923;28;92780;-73
2022/03/21 08:51:47;;;;;;;42.80;26.88;;;;;;;;;;4995029;28;96029;-72
2022/03/21 08:54:14;;;;;;;37.45;25.85;;;;;;;;;;4997808;28;93243;-74
2022/03/21 08:56:41;;;;;;;38.58;25.73;;;;;;;;;;4997791;28;92332;-72
2022/03/21 08:59:07;;;;;;;30.60;23.90;;;;;;;;;;5004309;28;94371;-76
2022/03/21 09:01:34;;;;;;;35.10;24.17;;;;;;;;;;4998851;28;95360;-72
2022/03/21 09:04:01;;;;;;;32.28;23.00;;;;;;;;;;4998022;28;92274;-74
2022/03/21 09:06:29;;;;;;;40.30;23.83;;;;;;;;;;4997623;28;93351;-73
2022/03/21 09:08:56;;;;;;;30.60;22.50;;;;;;;;;;5001055;28;92675;-74
2022/03/21 09:11:22;;;;;;;40.40;23.83;;;;;;;;;;4997179;28;93284;-71
2022/03/21 09:13:48;;;;;;;34.20;23.98;;;;;;;;;;4997382;28;93710;-72
2022/03/21 09:16:15;;;;;;;30.42;22.17;;;;;;;;;;4995834;28;94865;-74
2022/03/21 09:18:43;;;;;;;34.20;23.17;;;;;;;;;;4997081;28;95708;-75
2022/03/21 09:21:10;;;;;;;33.20;22.10;;;;;;;;;;4997326;28;93442;-73
2022/03/21 09:23:37;;;;;;;28.50;22.23;;;;;;;;;;4993895;28;92821;-74
2022/03/21 09:26:04;;;;;;;34.25;23.02;;;;;;;;;;4997344;28;93429;-73
2022/03/21 09:28:31;;;;;;;30.75;22.67;;;;;;;;;;4997178;28;92261;-74
2022/03/21 09:30:58;;;;;;;31.05;23.25;;;;;;;;;;5000414;28;92403;-73
2022/03/21 09:33:45;;;;;;;31.25;22.45;;;;;;;;;;4994662;28;92239;-73
2022/03/21 09:36:11;;;;;;;32.05;23.42;;;;;;;;;;4997751;28;92367;-74
2022/03/21 09:38:37;;;;;;;31.45;22.70;;;;;;;;;;4997418;28;92316;-72
2022/03/21 09:41:06;;;;;;;32.47;24.13;;;;;;;;;;4995120;28;95880;-73
2022/03/21 09:43:32;;;;;;;31.50;23.25;;;;;;;;;;4997149;28;93032;-71
2022/03/21 09:45:58;;;;;;;29.70;22.63;;;;;;;;;;4996682;28;93797;-75
2022/03/21 09:48:26;;;;;;;29.85;22.52;;;;;;;;;;4997056;28;93584;-73
2022/03/21 09:50:54;;;;;;;30.40;21.63;;;;;;;;;;4996407;28;92366;-76
2022/03/21 09:53:21;;;;;;;31.70;21.90;;;;;;;;;;4999748;28;93367;-75
2022/03/21 09:55:47;;;;;;;27.10;20.50;;;;;;;;;;4996896;28;92237;-73
2022/03/21 09:58:14;;;;;;;30.65;22.13;;;;;;;;;;4997297;28;93472;-72
2022/03/21 10:00:41;;;;;;;32.08;22.23;;;;;;;;;;4995979;28;93348;-72
2022/03/21 10:03:08;;;;;;;32.83;22.35;;;;;;;;;;4997125;28;92354;-73
2022/03/21 10:05:36;;;;;;;25.63;20.33;;;;;;;;;;4995357;28;94719;-77
2022/03/21 10:08:29;;;;;;;24.15;19.30;;;;;;;;;;4996616;28;93491;-73
2022/03/21 10:11:05;;;;;;;28.40;19.20;;;;;;;;;;4990489;28;93314;-73
2022/03/21 10:13:33;;;;;;;24.92;18.55;;;;;;;;;;4996762;28;93531;-74
2022/03/21 10:16:07;;;;;;;24.17;17.90;;;;;;;;;;4999609;28;93654;-73
2022/03/21 10:18:34;;;;;;;26.20;19.30;;;;;;;;;;4991144;28;95300;-73
2022/03/21 10:21:11;;;;;;;27.73;19.27;;;;;;;;;;4996171;28;93209;-74
2022/03/21 10:23:38;;;;;;;30.27;19.85;;;;;;;;;;4996753;28;91600;-73
2022/03/21 10:26:25;;;;;;;29.48;19.60;;;;;;;;;;4995855;28;93393;-73
2022/03/21 10:28:53;;;;;;;31.75;20.42;;;;;;;;;;4996227;28;93549;-72
2022/03/21 10:31:37;;;;;;;24.00;19.98;;;;;;;;;;4994566;28;94647;-73
2022/03/21 10:34:08;;;;;;;26.48;19.75;;;;;;;;;;4993282;28;95202;-74
2022/03/21 10:36:35;;;;;;;26.02;19.85;;;;;;;;;;4996145;28;95009;-73
2022/03/21 10:39:07;;;;;;;26.92;20.17;;;;;;;;;;4999534;28;92561;-73
2022/03/21 10:41:38;;;;;;;30.80;19.23;;;;;;;;;;4992689;28;93121;-73
2022/03/21 10:44:05;;;;;;;24.67;17.83;;;;;;;;;;4992822;28;92390;-73
2022/03/21 10:46:32;;;;;;;23.80;18.33;;;;;;;;;;4992033;28;93424;-73
2022/03/21 10:49:03;;;;;;;23.35;16.17;;;;;;;;;;4996495;28;92884;-73
2022/03/21 10:51:48;;;;;;;22.55;15.82;;;;;;;;;;4995727;28;92330;-72
2022/03/21 10:54:33;;;;;;;27.95;15.40;;;;;;;;;;4993979;28;93020;-73
2022/03/21 10:56:59;;;;;;;21.38;15.65;;;;;;;;;;4994088;28;96048;-73
2022/03/21 10:59:26;;;;;;;20.42;14.60;;;;;;;;;;4995907;28;92288;-72
2022/03/21 11:02:08;;;;;;;27.63;15.10;;;;;;;;;;4998480;28;95001;-73
2022/03/21 11:04:36;;;;;;;21.35;15.43;;;;;;;;;;4996197;28;92345;-73
2022/03/21 11:07:03;;;;;;;21.40;15.35;;;;;;;;;;4995926;28;93717;-71
2022/03/21 11:09:29;;;;;;;21.35;14.85;;;;;;;;;;4996383;28;93239;-74
2022/03/21 11:11:56;;;;;;;23.35;15.45;;;;;;;;;;4996056;28;93272;-72
2022/03/21 11:14:23;;;;;;;28.75;16.17;;;;;;;;;;4996503;28;93138;-72
2022/03/21 11:16:51;;;;;;;22.83;16.25;;;;;;;;;;4995662;28;93293;-72
2022/03/21 11:19:17;;;;;;;25.65;15.50;;;;;;;;;;4995495;28;92657;-73
2022/03/21 11:21:44;;;;;;;21.95;15.63;;;;;;;;;;4995476;28;94852;-73
2022/03/21 11:24:12;;;;;;;23.60;15.73;;;;;;;;;;4990683;28;92651;-72
2022/03/21 11:27:14;;;;;;;23.70;17.08;;;;;;;;;;4995734;28;92909;-73
2022/03/21 11:29:41;;;;;;;;;;;;;;;;;;4953990;28;92417;-72
2022/03/21 11:32:14;;;;;;;24.80;15.13;;;;;;;;;;4981490;28;104126;-73
2022/03/21 11:34:43;;;;;;;26.45;16.98;;;;;;;;;;4995625;28;93328;-73
2022/03/21 11:37:24;;;;;;;25.40;16.23;;;;;;;;;;4995317;28;92944;-72
2022/03/21 11:40:10;;;;;;;24.02;16.77;;;;;;;;;;4996207;28;91658;-73
2022/03/21 11:42:37;;;;;;;26.10;16.92;;;;;;;;;;4996795;28;93484;-74
2022/03/21 11:45:25;;;;;;;23.30;16.60;;;;;;;;;;5001621;28;93279;-73
2022/03/21 11:48:14;;;;;;;25.08;17.02;;;;;;;;;;4993976;28;94775;-73
2022/03/21 11:50:40;;;;;;;23.88;16.27;;;;;;;;;;4997251;28;93772;-73
2022/03/21 11:53:10;;;;;;;25.10;18.08;;;;;;;;;;4998551;28;92427;-71
2022/03/21 11:55:41;;;;;;;27.83;17.70;;;;;;;;;;4998893;28;92986;-71
2022/03/21 11:58:27;;;;;;;25.85;17.23;;;;;;;;;;4995865;28;92751;-76
2022/03/21 12:01:01;;;;;;;24.35;16.83;;;;;;;;;;4998541;28;92851;-74
2022/03/21 12:03:28;;;;;;;23.98;17.23;;;;;;;;;;4994141;28;95684;-77
2022/03/21 12:05:54;;;;;;;21.20;17.38;;;;;;;;;;4999211;28;93215;-75
2022/03/21 12:08:36;;;;;;;27.63;17.60;;;;;;;;;;4996416;28;93455;-74
2022/03/21 12:11:02;;;;;;;23.92;17.08;;;;;;;;;;4995241;28;93122;-75
2022/03/21 12:13:45;;;;;;;24.02;15.98;;;;;;;;;;4997136;28;94759;-75
2022/03/21 12:16:19;;;;;;;22.23;15.68;;;;;;;;;;4996279;28;95819;-74
2022/03/21 12:18:56;;;;;;;27.50;15.43;;;;;;;;;;4998320;28;93677;-75
2022/03/21 12:21:22;;;;;;;21.00;14.63;;;;;;;;;;4998133;28;92152;-74
2022/03/21 12:24:10;;;;;;;25.40;15.43;;;;;;;;;;4998699;28;93660;-74
2022/03/21 12:26:37;;;;;;;17.55;14.85;;;;;;;;;;4995049;28;92326;-74
2022/03/21 12:29:31;;;;;;;25.30;15.27;;;;;;;;;;4997872;28;92358;-74
2022/03/21 12:32:16;;;;;;;30.48;16.27;;;;;;;;;;5000669;28;92896;-72
2022/03/21 12:34:44;;;;;;;22.55;15.38;;;;;;;;;;4995582;28;92424;-74
2022/03/21 12:37:28;;;;;;;26.13;15.95;;;;;;;;;;4998254;28;93319;-73
2022/03/21 12:39:55;;;;;;;22.85;16.25;;;;;;;;;;4996426;28;96106;-74
2022/03/21 12:42:26;;;;;;;22.15;15.52;;;;;;;;;;4997748;28;93802;-74
2022/03/21 12:44:52;;;;;;;28.15;16.42;;;;;;;;;;4996888;28;93926;-74
2022/03/21 12:47:21;;;;;;;26.33;16.02;;;;;;;;;;4997143;28;92593;-74
2022/03/21 12:49:53;;;;;;;29.67;15.43;;;;;;;;;;4996086;28;92583;-74
2022/03/21 12:52:28;;;;;;;24.38;15.82;;;;;;;;;;4997658;28;93238;-73
2022/03/21 12:54:57;;;;;;;21.13;16.63;;;;;;;;;;4999865;28;93661;-74
2022/03/21 12:57:24;;;;;;;21.40;16.08;;;;;;;;;;4998463;28;93298;-73
2022/03/21 12:59:50;;;;;;;25.00;16.40;;;;;;;;;;4997912;28;93648;-72
2022/03/21 13:02:23;;;;;;;25.02;15.98;;;;;;;;;;4998618;28;92248;-73
2022/03/21 13:10:32;;;;;;;23.38;15.52;;;;;;;;;;4998472;28;92296;-75
2022/03/21 13:13:00;;;;;;;26.33;16.17;;;;;;;;;;4998279;28;93456;-74
2022/03/21 13:15:28;;;;;;;22.40;16.13;;;;;;;;;;4998207;28;93601;-74
2022/03/21 13:18:01;;;;;;;34.53;17.23;;;;;;;;;;5002544;28;92323;-75
2022/03/21 13:20:31;;;;;;;24.77;16.05;;;;;;;;;;4998076;28;93864;-74
2022/03/21 13:22:58;;;;;;;24.67;16.27;;;;;;;;;;4998530;28;91642;-74
2022/03/21 13:25:26;;;;;;;24.50;16.95;;;;;;;;;;4998209;28;92363;-74
2022/03/21 13:28:04;;;;;;;29.23;17.98;;;;;;;;;;4998073;28;93712;-74
2022/03/21 13:30:31;;;;;;;36.20;17.88;;;;;;;;;;4996245;28;94536;-73
2022/03/21 13:32:58;;;;;;;27.13;16.95;;;;;;;;;;4997760;28;95719;-74
2022/03/21 13:35:25;;;;;;;22.17;16.30;;;;;;;;;;4997584;28;94098;-75
2022/03/21 13:38:01;;;;;;;24.40;16.48;;;;;;;;;;5001170;28;92292;-74
2022/03/21 13:40:27;;;;;;;28.98;16.17;;;;;;;;;;4997812;28;93953;-72
2022/03/21 13:42:54;;;;;;;28.98;16.98;;;;;;;;;;4997847;28;92285;-72
2022/03/21 13:45:22;;;;;;;23.17;16.08;;;;;;;;;;4997221;28;93530;-73
2022/03/21 13:47:50;;;;;;;26.88;16.35;;;;;;;;;;4997866;28;92176;-74
2022/03/21 13:50:17;;;;;;;32.85;17.13;;;;;;;;;;4997793;28;92155;-75
2022/03/21 13:52:53;;;;;;;20.88;16.60;;;;;;;;;;4997596;28;92359;-76
2022/03/21 13:55:35;;;;;;;26.50;17.13;;;;;;;;;;4994430;28;96128;-74
2022/03/21 13:58:05;;;;;;;30.05;16.85;;;;;;;;;;4993181;28;92381;-74
2022/03/21 14:00:37;;;;;;;23.48;17.42;;;;;;;;;;4995262;28;93493;-74
2022/03/21 14:03:06;;;;;;;30.17;18.90;;;;;;;;;;4993626;28;92192;-74
2022/03/21 14:05:34;;;;;;;25.17;17.63;;;;;;;;;;4993416;28;93112;-73
2022/03/21 14:08:17;;;;;;;28.48;18.08;;;;;;;;;;4992679;28;93567;-73
2022/03/21 14:10:45;;;;;;;22.02;17.15;;;;;;;;;;4993904;28;92970;-74
2022/03/21 14:13:25;;;;;;;30.10;16.67;;;;;;;;;;4997052;28;92985;-73
2022/03/21 14:15:52;;;;;;;23.90;17.75;;;;;;;;;;4996143;28;93571;-74
2022/03/21 14:18:18;;;;;;;26.23;17.63;;;;;;;;;;4992016;28;92437;-73
2022/03/21 14:20:45;;;;;;;30.63;18.27;;;;;;;;;;4995123;28;94858;-73
2022/03/21 14:23:11;;;;;;;25.75;19.10;;;;;;;;;;4999258;28;93455;-74
2022/03/21 14:28:23;;;;;;;25.15;18.60;;;;;;;;;;4993930;28;93422;-72
2022/03/21 14:30:50;;;;;;;27.27;18.17;;;;;;;;;;4996788;28;93244;-72
2022/03/21 14:33:17;;;;;;;30.55;19.30;;;;;;;;;;4996440;28;93589;-72
2022/03/21 14:35:44;;;;;;;29.40;19.33;;;;;;;;;;4996003;28;93589;-72
2022/03/21 14:38:10;;;;;;;31.25;19.30;;;;;;;;;;4996240;28;91600;-72
2022/03/21 14:40:37;;;;;;;25.73;19.27;;;;;;;;;;4996288;28;92709;-71
2022/03/21 14:43:07;;;;;;;28.67;19.08;;;;;;;;;;4995754;28;93824;-71
2022/03/21 14:45:37;;;;;;;27.27;19.20;;;;;;;;;;4997646;28;94572;-75
2022/03/21 14:48:04;;;;;;;28.67;19.27;;;;;;;;;;4995203;28;93429;-72
2022/03/21 14:50:32;;;;;;;23.95;17.63;;;;;;;;;;4996085;28;92326;-73
2022/03/21 14:53:00;;;;;;;30.40;18.30;;;;;;;;;;4990932;28;94430;-73
2022/03/21 14:55:27;;;;;;;33.90;19.50;;;;;;;;;;4994523;28;96030;-73
2022/03/21 14:57:54;;;;;;;26.67;18.60;;;;;;;;;;4995667;28;92426;-73